»·PEaware :: N992W KOTH-KRDD

N992W :: KOTH-KRDD

FLIGHT INFORMATION

Flight Status: Arrived
Operator: Privately registered:
United States
More flights under this callsign
Pilot: Padraig S. (14196)
Aircraft: PIPER PA-31/31P NAVAJO CHIEFTAIN
(PA31)
More flights by this aircraft type
Origin: KOTH North Bend Mun
United States
Destination: KRDD Redding Mun
United States
More flights between these airports :: More routes between these airports
Route: +ACV V607 YAGER V195 RBL
File this flight plan on PilotEdge
Remarks:
Altitude:
(Current/Filed)
11,500ft
Speed:
(Current/Filed)
200kts
Departed: 26-Jul-18 01:30 PM
Arrived: 26-Jul-18 02:58 PM
Distance/Time
Traveled:
195nm/1:28
Distance/Time
To Go:
Arrived

Flight Plot

Page will automatically refresh every two minutes.

Flight plan parsing failed; only flown route is shown


Map Options




Map Legend


Flown Route
Filed Route
Departure Airport
Arrival Airport
Navaid (VOR, NDB)
Fix

Horizontal Profiles

Position Reports

Time Latitude Longitude Heading Altitude Ground
Speed
26-Jul-18 13:12 43.414875 -124.244615 330 21ft 0kts
26-Jul-18 13:13 43.414875 -124.244615 330 21ft 0kts
26-Jul-18 13:14 43.414875 -124.244615 330 21ft 0kts
26-Jul-18 13:15 43.414875 -124.244615 330 21ft 0kts
26-Jul-18 13:16 43.414875 -124.244615 330 21ft 0kts
26-Jul-18 13:17 43.414875 -124.244615 330 21ft 0kts
26-Jul-18 13:18 43.414875 -124.244615 330 21ft 0kts
26-Jul-18 13:19 43.414875 -124.244615 330 21ft 0kts
26-Jul-18 13:20 43.414875 -124.244615 330 21ft 0kts
26-Jul-18 13:21 43.414875 -124.244615 330 21ft 0kts
26-Jul-18 13:22 43.414875 -124.244615 330 21ft 0kts
26-Jul-18 13:23 43.414875 -124.244615 330 21ft 0kts
26-Jul-18 13:24 43.414875 -124.244615 330 21ft 0kts
26-Jul-18 13:25 43.413621 -124.242675 149 21ft 16kts
26-Jul-18 13:26 43.409702 -124.239538 149 21ft 14kts
26-Jul-18 13:27 43.408891 -124.238887 67 21ft 0kts
26-Jul-18 13:28 43.408891 -124.238887 67 21ft 0kts
26-Jul-18 13:29 43.408929 -124.238715 72 21ft 0kts
26-Jul-18 13:30 43.408929 -124.238715 72 21ft 0kts
26-Jul-18 13:31 43.418302 -124.244496 333 233ft 91kts
26-Jul-18 13:32 43.418547 -124.273788 212 1334ft 131kts
26-Jul-18 13:33 43.380469 -124.261833 162 2526ft 141kts
26-Jul-18 13:34 43.343357 -124.249337 171 3864ft 140kts
26-Jul-18 13:35 43.303780 -124.245300 181 5096ft 146kts
26-Jul-18 13:36 43.263170 -124.244980 184 6475ft 148kts
26-Jul-18 13:37 43.222493 -124.244247 183 7798ft 146kts
26-Jul-18 13:38 43.181903 -124.245125 185 8963ft 147kts
26-Jul-18 13:39 43.142035 -124.244616 181 10090ft 144kts
26-Jul-18 13:40 43.100748 -124.242061 183 11210ft 157kts
26-Jul-18 13:41 43.052952 -124.245752 182 11555ft 194kts
26-Jul-18 13:42 42.997461 -124.245398 181 11548ft 197kts
26-Jul-18 13:43 42.946767 -124.245209 182 11550ft 191kts
26-Jul-18 13:44 42.894535 -124.245031 182 11550ft 191kts
26-Jul-18 13:45 42.841529 -124.244822 182 11543ft 191kts
26-Jul-18 13:46 42.788238 -124.244618 182 11531ft 192kts
26-Jul-18 13:47 42.735044 -124.244416 182 11519ft 192kts
26-Jul-18 13:48 42.681672 -124.244214 182 11513ft 191kts
26-Jul-18 13:49 42.628614 -124.244015 182 11513ft 191kts
26-Jul-18 13:50 42.575460 -124.243815 182 11513ft 191kts
26-Jul-18 13:51 42.522175 -124.243614 182 11513ft 191kts
26-Jul-18 13:52 42.469148 -124.243414 182 11513ft 191kts
26-Jul-18 13:53 42.415973 -124.243215 182 11513ft 191kts
26-Jul-18 13:54 42.362779 -124.243015 182 11513ft 191kts
26-Jul-18 13:55 42.309747 -124.242817 182 11513ft 191kts
26-Jul-18 13:56 42.256853 -124.242619 182 11513ft 191kts
26-Jul-18 13:57 42.203761 -124.242421 182 11513ft 191kts
26-Jul-18 13:58 42.150711 -124.242223 182 11513ft 191kts
26-Jul-18 13:59 42.097509 -124.242026 182 11514ft 191kts
26-Jul-18 14:00 42.044354 -124.241821 181 11514ft 191kts
26-Jul-18 14:01 41.989737 -124.234787 177 11207ft 201kts
26-Jul-18 14:02 41.933919 -124.227389 175 10948ft 197kts
26-Jul-18 14:03 41.881490 -124.221054 177 10942ft 194kts
26-Jul-18 14:04 41.828054 -124.214499 176 10942ft 193kts
26-Jul-18 14:05 41.774433 -124.207702 176 10942ft 193kts
26-Jul-18 14:06 41.720879 -124.200909 176 10942ft 194kts
26-Jul-18 14:07 41.667300 -124.194127 176 10942ft 194kts
26-Jul-18 14:08 41.613710 -124.187355 176 10942ft 194kts
26-Jul-18 14:09 41.560190 -124.180604 176 10942ft 194kts
26-Jul-18 14:10 41.506323 -124.173819 176 10942ft 194kts
26-Jul-18 14:11 41.454776 -124.167337 176 10942ft 194kts
26-Jul-18 14:12 41.401130 -124.160603 176 10942ft 194kts
26-Jul-18 14:13 41.347450 -124.153876 176 10942ft 194kts
26-Jul-18 14:14 41.293569 -124.147138 176 10944ft 196kts
26-Jul-18 14:15 41.238842 -124.140324 176 10943ft 199kts
26-Jul-18 14:16 41.191730 -124.134394 176 10942ft 193kts
26-Jul-18 14:17 41.139736 -124.127939 176 10991ft 190kts
26-Jul-18 14:18 41.086927 -124.121379 176 11002ft 191kts
26-Jul-18 14:19 41.034213 -124.114835 176 11002ft 191kts
26-Jul-18 14:20 40.981480 -124.107731 166 10999ft 191kts
26-Jul-18 14:21 40.933982 -124.076410 154 11002ft 191kts
26-Jul-18 14:22 40.888020 -124.045723 154 11002ft 191kts
26-Jul-18 14:23 40.840553 -124.014040 154 11002ft 191kts
26-Jul-18 14:24 40.793246 -123.982520 154 11002ft 191kts
26-Jul-18 14:25 40.745758 -123.950921 154 11000ft 191kts
26-Jul-18 14:26 40.698295 -123.918908 154 10997ft 191kts
26-Jul-18 14:27 40.651068 -123.887086 154 10994ft 191kts
26-Jul-18 14:28 40.603742 -123.855312 154 10993ft 191kts
26-Jul-18 14:29 40.557957 -123.820497 128 10993ft 193kts
26-Jul-18 14:30 40.537908 -123.754956 111 10993ft 194kts
26-Jul-18 14:31 40.519209 -123.688470 110 10993ft 194kts
26-Jul-18 14:32 40.500314 -123.621415 110 10994ft 196kts
26-Jul-18 14:33 40.481358 -123.554216 110 10994ft 196kts
26-Jul-18 14:34 40.462278 -123.486882 110 10994ft 196kts
26-Jul-18 14:35 40.443150 -123.419521 110 10994ft 196kts
26-Jul-18 14:36 40.435309 -123.350176 84 10993ft 197kts
26-Jul-18 14:37 40.440550 -123.280980 84 10935ft 198kts
26-Jul-18 14:38 40.445962 -123.208893 84 10874ft 198kts
26-Jul-18 14:39 40.451128 -123.137773 84 10815ft 198kts
26-Jul-18 14:40 40.456258 -123.066215 84 10793ft 199kts
26-Jul-18 14:41 40.461454 -122.993339 84 10792ft 202kts
26-Jul-18 14:42 40.456948 -122.921146 112 10852ft 199kts
26-Jul-18 14:43 40.435304 -122.853301 114 10853ft 202kts
26-Jul-18 14:44 40.413951 -122.784501 113 10832ft 205kts
26-Jul-18 14:45 40.390526 -122.712729 111 10139ft 222kts
26-Jul-18 14:46 40.368223 -122.637059 110 8999ft 230kts
26-Jul-18 14:47 40.344999 -122.561247 120 7726ft 226kts
26-Jul-18 14:48 40.303784 -122.501391 132 6395ft 216kts
26-Jul-18 14:49 40.278097 -122.436229 93 5156ft 208kts
26-Jul-18 14:50 40.275049 -122.365741 89 3152ft 180kts
26-Jul-18 14:51 40.279372 -122.318474 45 2951ft 144kts
26-Jul-18 14:52 40.315890 -122.295365 358 2883ft 126kts
26-Jul-18 14:53 40.350980 -122.293352 5 2736ft 127kts
26-Jul-18 14:54 40.385187 -122.292920 353 2771ft 124kts
26-Jul-18 14:55 40.415665 -122.295863 359 2160ft 134kts
26-Jul-18 14:56 40.451094 -122.294915 1 1512ft 118kts
26-Jul-18 14:57 40.472460 -122.294760 2 1108ft 104kts
26-Jul-18 14:58 40.500636 -122.294862 1 548ft 94kts
26-Jul-18 14:59 40.508394 -122.296131 301 507ft 0kts
26-Jul-18 15:00 40.508531 -122.296967 237 507ft 11kts
26-Jul-18 15:01 40.508939 -122.298971 356 507ft 0kts
26-Jul-18 15:02 40.508939 -122.298971 356 507ft 0kts
26-Jul-18 15:03 40.508939 -122.298971 356 507ft 0kts
26-Jul-18 15:04 40.508939 -122.298971 356 507ft 0kts

Navigation Log

Ident Type
Flight plan parsing failed, navigation log unavailable